createdAt,value
2022-12-27T00:00:01.692Z,4.13
2022-12-27T00:00:11.562Z,4.13
2022-12-27T00:00:21.575Z,4.13
2022-12-27T00:00:31.657Z,4.13
2022-12-27T00:00:41.593Z,4.13
2022-12-27T00:00:51.690Z,4.13
2022-12-27T00:01:01.643Z,4.14
2022-12-27T00:01:11.679Z,4.13
2022-12-27T00:01:21.623Z,4.13
2022-12-27T00:01:31.754Z,4.14
2022-12-27T00:01:41.586Z,4.16
2022-12-27T00:01:51.588Z,4.14
2022-12-27T00:02:01.624Z,4.14
2022-12-27T00:02:11.718Z,4.14
2022-12-27T00:02:21.719Z,4.16
2022-12-27T00:02:31.614Z,4.14
2022-12-27T00:02:41.708Z,4.16
2022-12-27T00:02:51.557Z,4.14
2022-12-27T00:03:01.679Z,4.14
2022-12-27T00:03:11.580Z,4.14
2022-12-27T00:03:21.768Z,4.13
2022-12-27T00:03:31.651Z,4.13
2022-12-27T00:03:41.649Z,4.13
2022-12-27T00:03:51.658Z,4.13
2022-12-27T00:04:01.590Z,4.14
2022-12-27T00:04:11.547Z,4.14
2022-12-27T00:04:21.625Z,4.13
2022-12-27T00:04:31.569Z,4.11
2022-12-27T00:04:41.532Z,4.11
2022-12-27T00:04:51.574Z,4.13
2022-12-27T00:05:01.586Z,4.13
2022-12-27T00:05:11.527Z,4.13
2022-12-27T00:05:21.590Z,4.13
2022-12-27T00:05:31.629Z,4.13
2022-12-27T00:05:41.517Z,4.13
2022-12-27T00:05:51.564Z,4.11
2022-12-27T00:06:01.635Z,4.11
2022-12-27T00:06:11.633Z,4.11
2022-12-27T00:06:21.637Z,4.10
2022-12-27T00:06:31.605Z,4.11
2022-12-27T00:06:41.636Z,4.10
2022-12-27T00:06:51.606Z,4.13
2022-12-27T00:07:01.542Z,4.10
2022-12-27T00:07:11.562Z,4.11
2022-12-27T00:07:21.579Z,4.11
2022-12-27T00:07:31.584Z,4.10
2022-12-27T00:07:41.645Z,4.11
2022-12-27T00:07:51.605Z,4.11
2022-12-27T00:08:01.643Z,4.11
2022-12-27T00:08:11.613Z,4.11
2022-12-27T00:08:21.643Z,4.11
2022-12-27T00:08:31.604Z,4.11
2022-12-27T00:08:41.574Z,4.11
2022-12-27T00:08:51.574Z,4.13
2022-12-27T00:09:01.633Z,4.11
2022-12-27T00:09:11.585Z,4.10
2022-12-27T00:09:21.600Z,4.11
2022-12-27T00:09:31.563Z,4.10
2022-12-27T00:09:41.544Z,4.11
2022-12-27T00:09:51.626Z,4.11
2022-12-27T00:10:01.617Z,4.11
2022-12-27T00:10:11.604Z,4.10
2022-12-27T00:10:21.627Z,4.11
2022-12-27T00:10:31.582Z,4.11
2022-12-27T00:10:41.527Z,4.10
2022-12-27T00:10:51.536Z,4.13
2022-12-27T00:11:01.607Z,4.13
2022-12-27T00:11:11.565Z,4.14
2022-12-27T00:11:21.610Z,4.14
2022-12-27T00:11:31.540Z,4.14
2022-12-27T00:11:41.536Z,4.14
2022-12-27T00:11:58.107Z,4.16
2022-12-27T00:12:01.649Z,4.17
2022-12-27T00:12:11.618Z,4.16
2022-12-27T00:12:21.522Z,4.17
2022-12-27T00:12:31.574Z,4.14
2022-12-27T00:12:41.599Z,4.16
2022-12-27T00:12:51.646Z,4.16
2022-12-27T00:13:01.559Z,4.13
2022-12-27T00:13:11.580Z,4.14
2022-12-27T00:13:21.621Z,4.14
2022-12-27T00:13:31.529Z,4.16
2022-12-27T00:13:41.638Z,4.16
2022-12-27T00:13:51.540Z,4.14
2022-12-27T00:14:01.631Z,4.14
2022-12-27T00:14:11.520Z,4.14
2022-12-27T00:14:21.519Z,4.13
2022-12-27T00:14:31.567Z,4.14
2022-12-27T00:14:41.523Z,4.14
2022-12-27T00:14:51.559Z,4.14
2022-12-27T00:15:01.570Z,4.11
2022-12-27T00:15:11.530Z,4.13
2022-12-27T00:15:21.540Z,4.11
2022-12-27T00:15:31.627Z,4.11
2022-12-27T00:15:41.630Z,4.11
2022-12-27T00:15:51.600Z,4.11
2022-12-27T00:16:01.605Z,4.13
2022-12-27T00:16:11.623Z,4.14
2022-12-27T00:16:21.610Z,4.13
2022-12-27T00:16:31.673Z,4.13
2022-12-27T00:16:41.626Z,4.14
2022-12-27T00:16:51.550Z,4.11
2022-12-27T00:17:01.607Z,4.11
2022-12-27T00:17:11.525Z,4.14
2022-12-27T00:17:21.600Z,4.14
2022-12-27T00:17:31.624Z,4.16
2022-12-27T00:17:41.651Z,4.16
2022-12-27T00:17:51.581Z,4.16
2022-12-27T00:18:01.578Z,4.16
2022-12-27T00:18:11.578Z,4.16
2022-12-27T00:18:21.540Z,4.17
2022-12-27T00:18:31.645Z,4.17
2022-12-27T00:18:41.602Z,4.17
2022-12-27T00:18:51.535Z,4.18
2022-12-27T00:19:01.649Z,4.17
2022-12-27T00:19:11.636Z,4.18
2022-12-27T00:19:21.572Z,4.17
2022-12-27T00:19:31.568Z,4.16
2022-12-27T00:19:41.659Z,4.16
2022-12-27T00:19:51.674Z,4.17
2022-12-27T00:20:06.871Z,4.17
2022-12-27T00:20:12.032Z,4.16
2022-12-27T00:20:21.606Z,4.14
2022-12-27T00:20:31.678Z,4.16
2022-12-27T00:20:41.546Z,4.16
2022-12-27T00:20:51.600Z,4.16
2022-12-27T00:21:01.610Z,4.13
2022-12-27T00:21:11.586Z,4.11
2022-12-27T00:21:21.568Z,4.13
2022-12-27T00:21:31.600Z,4.16
2022-12-27T00:21:41.520Z,4.13
2022-12-27T00:21:51.649Z,4.14
2022-12-27T00:22:01.600Z,4.16
2022-12-27T00:22:11.552Z,4.14
2022-12-27T00:22:21.620Z,4.14
2022-12-27T00:22:31.527Z,4.14
2022-12-27T00:22:41.632Z,4.14
2022-12-27T00:22:51.631Z,4.13
2022-12-27T00:23:01.603Z,4.11
2022-12-27T00:23:11.569Z,4.11
2022-12-27T00:23:21.514Z,4.11
2022-12-27T00:23:31.686Z,4.10
2022-12-27T00:23:41.538Z,4.10
2022-12-27T00:23:51.638Z,4.10
2022-12-27T00:24:01.625Z,4.10
2022-12-27T00:24:11.571Z,4.08
2022-12-27T00:24:21.604Z,4.08
2022-12-27T00:24:31.520Z,4.07
2022-12-27T00:24:41.577Z,4.08
2022-12-27T00:24:51.553Z,4.08
2022-12-27T00:25:01.586Z,4.08
2022-12-27T00:25:11.562Z,4.07
2022-12-27T00:25:21.592Z,4.08
2022-12-27T00:25:31.570Z,4.08
2022-12-27T00:25:41.560Z,4.08
2022-12-27T00:25:51.580Z,4.08
2022-12-27T00:26:01.577Z,4.08
2022-12-27T00:26:11.651Z,4.08
2022-12-27T00:26:21.600Z,4.10
2022-12-27T00:26:31.591Z,4.08
2022-12-27T00:26:41.547Z,4.08
2022-12-27T00:26:51.614Z,4.08
2022-12-27T00:27:01.654Z,4.08
2022-12-27T00:27:11.649Z,4.07
2022-12-27T00:27:21.674Z,4.07
2022-12-27T00:27:31.546Z,4.07
2022-12-27T00:27:41.575Z,4.08
2022-12-27T00:27:51.609Z,4.07
2022-12-27T00:28:01.625Z,4.07
2022-12-27T00:28:11.606Z,4.08
2022-12-27T00:28:21.610Z,4.08
2022-12-27T00:28:31.538Z,4.07
2022-12-27T00:28:41.544Z,4.07
2022-12-27T00:28:51.630Z,4.07
2022-12-27T00:29:01.681Z,4.06
2022-12-27T00:29:11.538Z,4.07
2022-12-27T00:29:21.566Z,4.06
2022-12-27T00:29:31.627Z,4.06
2022-12-27T00:29:41.552Z,4.04
2022-12-27T00:29:51.552Z,4.04
2022-12-27T00:30:01.573Z,4.04
2022-12-27T00:30:11.596Z,4.04
2022-12-27T00:30:21.536Z,4.07
2022-12-27T00:30:31.538Z,4.06
2022-12-27T00:30:41.524Z,4.06
2022-12-27T00:30:51.604Z,4.07
2022-12-27T00:31:01.539Z,4.07
2022-12-27T00:31:11.695Z,4.06
2022-12-27T00:31:21.579Z,4.08
2022-12-27T00:31:31.659Z,4.08
2022-12-27T00:31:41.633Z,4.08
2022-12-27T00:31:51.642Z,4.10
2022-12-27T00:32:01.636Z,4.10
2022-12-27T00:32:11.673Z,4.08
2022-12-27T00:32:21.657Z,4.10
2022-12-27T00:32:31.536Z,4.10
2022-12-27T00:32:41.546Z,4.10
2022-12-27T00:32:51.585Z,4.10
2022-12-27T00:33:01.631Z,4.10
2022-12-27T00:33:11.596Z,4.11
2022-12-27T00:33:21.644Z,4.11
2022-12-27T00:33:31.637Z,4.11
2022-12-27T00:33:41.576Z,4.11
2022-12-27T00:33:51.618Z,4.11
2022-12-27T00:34:01.595Z,4.13
2022-12-27T00:34:11.602Z,4.13
2022-12-27T00:34:21.606Z,4.13
2022-12-27T00:34:31.553Z,4.13
2022-12-27T00:34:41.627Z,4.13
2022-12-27T00:34:51.545Z,4.14
2022-12-27T00:35:01.605Z,4.11
2022-12-27T00:35:11.575Z,4.16
2022-12-27T00:35:21.640Z,4.16
2022-12-27T00:35:31.638Z,4.14
2022-12-27T00:35:41.531Z,4.16
2022-12-27T00:35:51.641Z,4.14
2022-12-27T00:36:01.554Z,4.13
2022-12-27T00:36:11.629Z,4.13
2022-12-27T00:36:21.559Z,4.13
2022-12-27T00:36:31.663Z,4.13
2022-12-27T00:36:41.529Z,4.11
2022-12-27T00:36:51.605Z,4.11
2022-12-27T00:37:01.551Z,4.13
2022-12-27T00:37:11.522Z,4.11
2022-12-27T00:37:21.601Z,4.08
2022-12-27T00:37:31.560Z,4.13
2022-12-27T00:37:41.599Z,4.10
2022-12-27T00:37:51.614Z,4.11
2022-12-27T00:38:01.631Z,4.11
2022-12-27T00:38:11.555Z,4.11
2022-12-27T00:38:21.651Z,4.13
2022-12-27T00:38:31.638Z,4.13
2022-12-27T00:38:41.519Z,4.13
2022-12-27T00:38:51.610Z,4.13
2022-12-27T00:39:01.673Z,4.13
2022-12-27T00:39:11.619Z,4.13
2022-12-27T00:39:21.649Z,4.14
2022-12-27T00:39:31.540Z,4.14
2022-12-27T00:39:41.531Z,4.16
2022-12-27T00:39:51.588Z,4.16
2022-12-27T00:40:01.668Z,4.16
2022-12-27T00:40:11.586Z,4.16
2022-12-27T00:40:21.592Z,4.16
2022-12-27T00:40:31.614Z,4.13
2022-12-27T00:40:41.622Z,4.17
2022-12-27T00:40:51.584Z,4.18
2022-12-27T00:41:01.660Z,4.18
2022-12-27T00:41:11.553Z,4.17
2022-12-27T00:41:21.652Z,4.18
2022-12-27T00:41:31.628Z,4.20
2022-12-27T00:41:41.594Z,4.21
2022-12-27T00:41:51.652Z,4.21
2022-12-27T00:42:01.525Z,4.24
2022-12-27T00:42:11.617Z,4.25
2022-12-27T00:42:21.640Z,4.25
2022-12-27T00:42:31.549Z,4.25
2022-12-27T00:42:41.651Z,4.26
2022-12-27T00:42:51.576Z,4.26
2022-12-27T00:43:01.621Z,4.28
2022-12-27T00:43:11.594Z,4.29
2022-12-27T00:43:21.566Z,4.28
2022-12-27T00:43:31.549Z,4.29
2022-12-27T00:43:41.627Z,4.31
2022-12-27T00:43:51.589Z,4.31
2022-12-27T00:44:01.555Z,4.32
2022-12-27T00:44:11.597Z,4.32
2022-12-27T00:44:21.665Z,4.35
2022-12-27T00:44:31.635Z,4.35
2022-12-27T00:44:41.621Z,4.36
2022-12-27T00:44:51.621Z,4.35
2022-12-27T00:45:01.532Z,4.38
2022-12-27T00:45:11.629Z,4.36
2022-12-27T00:45:21.649Z,4.39
2022-12-27T00:45:31.698Z,4.39
2022-12-27T00:45:41.655Z,4.39
2022-12-27T00:45:51.693Z,4.38
2022-12-27T00:46:01.666Z,4.39
2022-12-27T00:46:11.628Z,4.39
2022-12-27T00:46:21.592Z,4.39
2022-12-27T00:46:31.623Z,4.39
2022-12-27T00:46:41.587Z,4.42
2022-12-27T00:46:51.626Z,4.39
2022-12-27T00:47:01.654Z,4.43
2022-12-27T00:47:11.546Z,4.43
2022-12-27T00:47:21.604Z,4.43
2022-12-27T00:47:31.616Z,4.43
2022-12-27T00:47:41.569Z,4.43
2022-12-27T00:47:51.524Z,4.42
2022-12-27T00:48:01.523Z,4.42
2022-12-27T00:48:11.587Z,4.43
2022-12-27T00:48:21.653Z,4.44
2022-12-27T00:48:31.539Z,4.43
2022-12-27T00:48:41.546Z,4.42
2022-12-27T00:48:51.642Z,4.43
2022-12-27T00:49:01.541Z,4.43
2022-12-27T00:49:11.530Z,4.43
2022-12-27T00:49:21.545Z,4.44
2022-12-27T00:49:31.583Z,4.43
2022-12-27T00:49:41.539Z,4.44
2022-12-27T00:49:51.579Z,4.46
2022-12-27T00:50:01.643Z,4.44
2022-12-27T00:50:11.530Z,4.47
2022-12-27T00:50:21.518Z,4.46
2022-12-27T00:50:31.623Z,4.43
2022-12-27T00:50:41.625Z,4.47
2022-12-27T00:50:51.525Z,4.46
2022-12-27T00:51:01.620Z,4.46
2022-12-27T00:51:11.577Z,4.46
2022-12-27T00:51:21.630Z,4.46
2022-12-27T00:51:31.642Z,4.47
2022-12-27T00:51:41.632Z,4.46
2022-12-27T00:51:51.639Z,4.46
2022-12-27T00:52:01.639Z,4.44
2022-12-27T00:52:11.610Z,4.44
2022-12-27T00:52:21.585Z,4.44
2022-12-27T00:52:31.587Z,4.44
2022-12-27T00:52:41.586Z,4.44
2022-12-27T00:52:51.645Z,4.43
2022-12-27T00:53:01.551Z,4.43
2022-12-27T00:53:11.537Z,4.42
2022-12-27T00:53:21.606Z,4.42
2022-12-27T00:53:31.520Z,4.42
2022-12-27T00:53:41.651Z,4.42
2022-12-27T00:53:51.673Z,4.42
2022-12-27T00:54:01.535Z,4.39
2022-12-27T00:54:11.552Z,4.39
2022-12-27T00:54:21.587Z,4.42
2022-12-27T00:54:31.565Z,4.39
2022-12-27T00:54:41.536Z,4.43
2022-12-27T00:54:51.545Z,4.43
2022-12-27T00:55:01.590Z,4.44
2022-12-27T00:55:11.682Z,4.47
2022-12-27T00:55:21.571Z,4.46
2022-12-27T00:55:31.574Z,4.47
2022-12-27T00:55:41.609Z,4.49
2022-12-27T00:55:51.575Z,4.49
2022-12-27T00:56:01.571Z,4.49
2022-12-27T00:56:11.605Z,4.50
2022-12-27T00:56:21.690Z,4.50
2022-12-27T00:56:31.525Z,4.50
2022-12-27T00:56:41.650Z,4.50
2022-12-27T00:56:51.577Z,4.50
2022-12-27T00:57:01.636Z,4.50
2022-12-27T00:57:11.651Z,4.49
2022-12-27T00:57:21.633Z,4.49
2022-12-27T00:57:31.580Z,4.49
2022-12-27T00:57:41.612Z,4.49
2022-12-27T00:57:51.620Z,4.49
2022-12-27T00:58:01.520Z,4.47
2022-12-27T00:58:11.574Z,4.44
2022-12-27T00:58:21.531Z,4.47
2022-12-27T00:58:31.585Z,4.47
2022-12-27T00:58:41.608Z,4.47
2022-12-27T00:58:51.537Z,4.44
2022-12-27T00:59:01.599Z,4.44
2022-12-27T00:59:11.631Z,4.44
2022-12-27T00:59:21.612Z,4.42
2022-12-27T00:59:31.573Z,4.43
2022-12-27T00:59:41.523Z,4.39
2022-12-27T00:59:51.613Z,4.43
2022-12-27T01:00:07.897Z,4.43
2022-12-27T01:00:11.557Z,4.42
2022-12-27T01:00:21.544Z,4.42
2022-12-27T01:00:31.660Z,4.39
2022-12-27T01:00:41.832Z,4.43
2022-12-27T01:00:51.615Z,4.43
2022-12-27T01:01:01.677Z,4.42
2022-12-27T01:01:11.667Z,4.42
2022-12-27T01:01:21.699Z,4.39
2022-12-27T01:01:31.676Z,4.42
2022-12-27T01:01:41.696Z,4.36
2022-12-27T01:01:51.723Z,4.39
2022-12-27T01:02:01.813Z,4.39
2022-12-27T01:02:11.663Z,4.42
2022-12-27T01:02:21.698Z,4.39
2022-12-27T01:02:31.527Z,4.42
2022-12-27T01:02:41.556Z,4.39
2022-12-27T01:02:51.651Z,4.39
2022-12-27T01:03:01.594Z,4.39
2022-12-27T01:03:11.528Z,4.36
2022-12-27T01:03:21.674Z,4.38
2022-12-27T01:03:31.660Z,4.36
2022-12-27T01:03:41.660Z,4.36
2022-12-27T01:03:51.703Z,4.35
2022-12-27T01:04:01.596Z,4.35
2022-12-27T01:04:11.680Z,4.35
2022-12-27T01:04:21.527Z,4.35
2022-12-27T01:04:31.586Z,4.35
2022-12-27T01:04:41.643Z,4.35
2022-12-27T01:04:51.581Z,4.34
2022-12-27T01:05:01.548Z,4.32
2022-12-27T01:05:11.556Z,4.32
2022-12-27T01:05:21.694Z,4.34
2022-12-27T01:05:31.556Z,4.34
2022-12-27T01:05:41.560Z,4.34
2022-12-27T01:05:51.530Z,4.34
2022-12-27T01:06:01.632Z,4.34
2022-12-27T01:06:11.539Z,4.32
2022-12-27T01:06:21.637Z,4.35
2022-12-27T01:06:31.569Z,4.35
2022-12-27T01:06:41.556Z,4.34
2022-12-27T01:06:51.539Z,4.34
2022-12-27T01:07:01.656Z,4.35
2022-12-27T01:07:11.603Z,4.35
2022-12-27T01:07:21.583Z,4.34
2022-12-27T01:07:31.586Z,4.35
2022-12-27T01:07:41.534Z,4.36
2022-12-27T01:07:51.628Z,4.36
2022-12-27T01:08:01.589Z,4.38
2022-12-27T01:08:11.569Z,4.38
2022-12-27T01:08:21.625Z,4.38
2022-12-27T01:08:31.641Z,4.38
2022-12-27T01:08:41.633Z,4.38
2022-12-27T01:08:51.615Z,4.38
2022-12-27T01:09:01.551Z,4.38
2022-12-27T01:09:11.573Z,4.39
2022-12-27T01:09:21.587Z,4.42
2022-12-27T01:09:31.621Z,4.42
2022-12-27T01:09:41.655Z,4.43
2022-12-27T01:09:51.595Z,4.43
2022-12-27T01:10:01.528Z,4.42
2022-12-27T01:10:11.537Z,4.42
2022-12-27T01:10:21.609Z,4.42
2022-12-27T01:10:31.532Z,4.42
2022-12-27T01:10:41.600Z,4.39
2022-12-27T01:10:51.658Z,4.38
2022-12-27T01:11:01.546Z,4.38
2022-12-27T01:11:11.644Z,4.38
2022-12-27T01:11:21.565Z,4.38
2022-12-27T01:11:31.596Z,4.38
2022-12-27T01:11:41.618Z,4.38
2022-12-27T01:11:51.612Z,4.43
2022-12-27T01:12:01.590Z,4.42
2022-12-27T01:12:11.666Z,4.42
2022-12-27T01:12:21.607Z,4.42
2022-12-27T01:12:31.595Z,4.42
2022-12-27T01:12:41.613Z,4.42
2022-12-27T01:12:51.616Z,4.43
2022-12-27T01:13:01.634Z,4.42
2022-12-27T01:13:11.551Z,4.43
2022-12-27T01:13:21.641Z,4.43
2022-12-27T01:13:31.611Z,4.43
2022-12-27T01:13:41.621Z,4.42
2022-12-27T01:13:51.642Z,4.42
2022-12-27T01:14:01.595Z,4.42
2022-12-27T01:14:11.552Z,4.39
2022-12-27T01:14:21.550Z,4.38
2022-12-27T01:14:31.627Z,4.39
2022-12-27T01:14:41.602Z,4.39
2022-12-27T01:14:51.610Z,4.39
2022-12-27T01:15:01.543Z,4.42
2022-12-27T01:15:11.558Z,4.42
2022-12-27T01:15:21.653Z,4.42
2022-12-27T01:15:31.616Z,4.42
2022-12-27T01:15:41.587Z,4.42
2022-12-27T01:15:51.558Z,4.43
2022-12-27T01:16:01.647Z,4.43
2022-12-27T01:16:11.633Z,4.44
2022-12-27T01:16:21.622Z,4.44
2022-12-27T01:16:31.614Z,4.44
2022-12-27T01:16:41.624Z,4.44
2022-12-27T01:16:51.669Z,4.44
2022-12-27T01:17:01.672Z,4.43
2022-12-27T01:17:11.617Z,4.44
2022-12-27T01:17:21.528Z,4.44
2022-12-27T01:17:31.620Z,4.44
2022-12-27T01:17:41.604Z,4.44
2022-12-27T01:17:51.635Z,4.44
2022-12-27T01:18:01.640Z,4.44
2022-12-27T01:18:11.574Z,4.44
2022-12-27T01:18:21.646Z,4.42
2022-12-27T01:18:31.572Z,4.43
2022-12-27T01:18:41.542Z,4.43
2022-12-27T01:18:51.538Z,4.42
2022-12-27T01:19:01.560Z,4.43
2022-12-27T01:19:12.057Z,4.42
2022-12-27T01:19:21.631Z,4.42
2022-12-27T01:19:31.647Z,4.42
2022-12-27T01:19:41.554Z,4.42
2022-12-27T01:19:51.541Z,4.43
2022-12-27T01:20:01.628Z,4.43
2022-12-27T01:20:11.628Z,4.42
2022-12-27T01:20:21.536Z,4.39
2022-12-27T01:20:31.569Z,4.42
2022-12-27T01:20:41.551Z,4.43
2022-12-27T01:20:51.544Z,4.43
2022-12-27T01:21:01.623Z,4.43
2022-12-27T01:21:11.548Z,4.43
2022-12-27T01:21:21.606Z,4.42
2022-12-27T01:21:31.624Z,4.42
2022-12-27T01:21:41.674Z,4.43
2022-12-27T01:21:51.635Z,4.43
2022-12-27T01:22:01.553Z,4.43
2022-12-27T01:22:11.557Z,4.42
2022-12-27T01:22:21.605Z,4.42
2022-12-27T01:22:31.632Z,4.43
2022-12-27T01:22:41.668Z,4.42
2022-12-27T01:22:51.629Z,4.42
2022-12-27T01:23:01.619Z,4.39
2022-12-27T01:23:11.565Z,4.43
2022-12-27T01:23:21.635Z,4.42
2022-12-27T01:23:31.605Z,4.42
2022-12-27T01:23:41.633Z,4.42
2022-12-27T01:23:51.583Z,4.42
2022-12-27T01:24:01.649Z,4.42
2022-12-27T01:24:11.630Z,4.42
2022-12-27T01:24:21.594Z,4.44
2022-12-27T01:24:31.610Z,4.39
2022-12-27T01:24:41.557Z,4.39
2022-12-27T01:24:51.542Z,4.39
2022-12-27T01:25:01.586Z,4.39
2022-12-27T01:25:11.647Z,4.36
2022-12-27T01:25:21.588Z,4.38
2022-12-27T01:25:31.552Z,4.36
2022-12-27T01:25:41.556Z,4.36
2022-12-27T01:25:51.520Z,4.35
2022-12-27T01:26:01.577Z,4.35
2022-12-27T01:26:11.656Z,4.35
2022-12-27T01:26:21.552Z,4.34
2022-12-27T01:26:31.650Z,4.35
2022-12-27T01:26:41.599Z,4.34
2022-12-27T01:26:51.589Z,4.34
2022-12-27T01:27:01.569Z,4.34
2022-12-27T01:27:11.608Z,4.32
2022-12-27T01:27:21.551Z,4.34
2022-12-27T01:27:31.595Z,4.32
2022-12-27T01:27:41.606Z,4.34
2022-12-27T01:27:51.577Z,4.31
2022-12-27T01:28:01.632Z,4.31
2022-12-27T01:28:11.585Z,4.32
2022-12-27T01:28:21.613Z,4.31
2022-12-27T01:28:31.578Z,4.29
2022-12-27T01:28:41.552Z,4.32
2022-12-27T01:28:51.572Z,4.29
2022-12-27T01:29:01.581Z,4.29
2022-12-27T01:29:11.579Z,4.28
2022-12-27T01:29:21.540Z,4.28
2022-12-27T01:29:31.637Z,4.28
2022-12-27T01:29:41.588Z,4.26
2022-12-27T01:29:51.544Z,4.28
2022-12-27T01:30:01.613Z,4.26
2022-12-27T01:30:11.555Z,4.25
2022-12-27T01:30:21.636Z,4.25
2022-12-27T01:30:31.638Z,4.24
2022-12-27T01:30:41.534Z,4.21
2022-12-27T01:30:51.557Z,4.24
2022-12-27T01:31:01.563Z,4.21
2022-12-27T01:31:11.561Z,4.20
2022-12-27T01:31:21.743Z,4.18
2022-12-27T01:31:31.675Z,4.20
2022-12-27T01:31:41.689Z,4.18
2022-12-27T01:31:51.626Z,4.18
2022-12-27T01:32:01.660Z,4.18
2022-12-27T01:32:11.596Z,4.17
2022-12-27T01:32:21.618Z,4.17
2022-12-27T01:32:31.630Z,4.18
2022-12-27T01:32:41.521Z,4.17
2022-12-27T01:32:51.533Z,4.18
2022-12-27T01:33:01.630Z,4.16
2022-12-27T01:33:11.650Z,4.18
2022-12-27T01:33:21.652Z,4.16
2022-12-27T01:33:31.636Z,4.18
2022-12-27T01:33:41.574Z,4.17
2022-12-27T01:33:51.567Z,4.17
2022-12-27T01:34:01.613Z,4.17
2022-12-27T01:34:11.549Z,4.17
2022-12-27T01:34:21.653Z,4.17
2022-12-27T01:34:31.565Z,4.17
2022-12-27T01:34:41.602Z,4.17
2022-12-27T01:34:51.592Z,4.16
2022-12-27T01:35:01.546Z,4.17
2022-12-27T01:35:11.578Z,4.17
2022-12-27T01:35:21.520Z,4.18
2022-12-27T01:35:31.591Z,4.17
2022-12-27T01:35:41.527Z,4.16
2022-12-27T01:35:51.565Z,4.17
2022-12-27T01:36:01.570Z,4.17
2022-12-27T01:36:11.613Z,4.16
2022-12-27T01:36:21.541Z,4.16
2022-12-27T01:36:31.557Z,4.17
2022-12-27T01:36:41.527Z,4.16
2022-12-27T01:36:51.602Z,4.14
2022-12-27T01:37:01.529Z,4.16
2022-12-27T01:37:11.556Z,4.16
2022-12-27T01:37:21.656Z,4.16
2022-12-27T01:37:31.632Z,4.16
2022-12-27T01:37:41.537Z,4.16
2022-12-27T01:37:51.538Z,4.17
2022-12-27T01:38:01.607Z,4.17
2022-12-27T01:38:11.577Z,4.16
2022-12-27T01:38:21.586Z,4.17
2022-12-27T01:38:31.594Z,4.18
2022-12-27T01:38:41.554Z,4.17
2022-12-27T01:38:51.601Z,4.17
2022-12-27T01:39:01.604Z,4.17
2022-12-27T01:39:11.651Z,4.17
2022-12-27T01:39:21.573Z,4.17
2022-12-27T01:39:31.605Z,4.17
2022-12-27T01:39:41.542Z,4.17
2022-12-27T01:39:51.637Z,4.16
2022-12-27T01:40:01.532Z,4.14
2022-12-27T01:40:11.610Z,4.16
2022-12-27T01:40:21.530Z,4.14
2022-12-27T01:40:31.591Z,4.14
2022-12-27T01:40:41.608Z,4.16
2022-12-27T01:40:51.612Z,4.16
2022-12-27T01:41:01.627Z,4.17
2022-12-27T01:41:11.652Z,4.20
2022-12-27T01:41:21.567Z,4.20
2022-12-27T01:41:31.646Z,4.18
2022-12-27T01:41:41.634Z,4.21
2022-12-27T01:41:51.558Z,4.21
2022-12-27T01:42:01.557Z,4.24
2022-12-27T01:42:11.526Z,4.24
2022-12-27T01:42:21.561Z,4.24
2022-12-27T01:42:31.638Z,4.21
2022-12-27T01:42:41.626Z,4.25
2022-12-27T01:42:51.540Z,4.25
2022-12-27T01:43:01.599Z,4.25
2022-12-27T01:43:11.519Z,4.24
2022-12-27T01:43:21.613Z,4.24
2022-12-27T01:43:31.572Z,4.25
2022-12-27T01:43:41.640Z,4.24
2022-12-27T01:43:51.532Z,4.25
2022-12-27T01:44:01.645Z,4.25
2022-12-27T01:44:11.545Z,4.26
2022-12-27T01:44:21.548Z,4.29
2022-12-27T01:44:31.617Z,4.25
2022-12-27T01:44:41.555Z,4.26
2022-12-27T01:44:51.560Z,4.25
2022-12-27T01:45:01.600Z,4.25
2022-12-27T01:45:11.524Z,4.26
2022-12-27T01:45:21.571Z,4.24
2022-12-27T01:45:31.578Z,4.25
2022-12-27T01:45:41.578Z,4.18
2022-12-27T01:45:51.645Z,4.21
2022-12-27T01:46:01.622Z,4.24
2022-12-27T01:46:11.685Z,4.21
2022-12-27T01:46:21.582Z,4.24
2022-12-27T01:46:31.594Z,4.20
2022-12-27T01:46:41.559Z,4.20
2022-12-27T01:46:51.569Z,4.18
2022-12-27T01:47:01.651Z,4.20
2022-12-27T01:47:11.608Z,4.18
2022-12-27T01:47:21.631Z,4.20
2022-12-27T01:47:31.690Z,4.20
2022-12-27T01:47:41.597Z,4.18
2022-12-27T01:47:51.608Z,4.18
2022-12-27T01:48:01.639Z,4.20
2022-12-27T01:48:11.577Z,4.20
2022-12-27T01:48:21.574Z,4.20
2022-12-27T01:48:31.542Z,4.18
2022-12-27T01:48:41.663Z,4.18
2022-12-27T01:48:51.580Z,4.17
2022-12-27T01:49:04.420Z,4.16
2022-12-27T01:49:11.635Z,4.16
2022-12-27T01:49:21.593Z,4.17
2022-12-27T01:49:31.546Z,4.16
2022-12-27T01:49:41.614Z,4.14
2022-12-27T01:49:51.609Z,4.14
2022-12-27T01:50:01.682Z,4.14
2022-12-27T01:50:11.570Z,4.14
2022-12-27T01:50:21.612Z,4.14
2022-12-27T01:50:31.522Z,4.14
2022-12-27T01:50:41.557Z,4.14
2022-12-27T01:50:51.528Z,4.16
2022-12-27T01:51:01.584Z,4.13
2022-12-27T01:51:11.605Z,4.13
2022-12-27T01:51:21.542Z,4.16
2022-12-27T01:51:31.577Z,4.14
2022-12-27T01:51:41.553Z,4.14
2022-12-27T01:51:51.564Z,4.16
2022-12-27T01:52:01.610Z,4.14
2022-12-27T01:52:11.621Z,4.16
2022-12-27T01:52:21.642Z,4.14
2022-12-27T01:52:34.925Z,4.14
2022-12-27T01:52:41.654Z,4.14
2022-12-27T01:52:51.554Z,4.14
2022-12-27T01:53:01.525Z,4.14
2022-12-27T01:53:11.629Z,4.13
2022-12-27T01:53:21.539Z,4.11
2022-12-27T01:53:31.655Z,4.16
2022-12-27T01:53:41.535Z,4.14
2022-12-27T01:53:51.528Z,4.14
2022-12-27T01:54:01.590Z,4.14
2022-12-27T01:54:11.660Z,4.14
2022-12-27T01:54:21.568Z,4.14
2022-12-27T01:54:31.550Z,4.16
2022-12-27T01:54:41.599Z,4.14
2022-12-27T01:54:51.527Z,4.17
2022-12-27T01:55:01.540Z,4.17
2022-12-27T01:55:11.587Z,4.17
2022-12-27T01:55:21.644Z,4.16
2022-12-27T01:55:31.541Z,4.17
2022-12-27T01:55:41.606Z,4.16
2022-12-27T01:55:51.601Z,4.16
2022-12-27T01:56:01.687Z,4.14
2022-12-27T01:56:11.630Z,4.16
2022-12-27T01:56:21.614Z,4.14
2022-12-27T01:56:31.588Z,4.11
2022-12-27T01:56:41.584Z,4.13
2022-12-27T01:56:51.619Z,4.11
2022-12-27T01:57:01.538Z,4.13
2022-12-27T01:57:11.635Z,4.11
2022-12-27T01:57:21.584Z,4.11
2022-12-27T01:57:31.628Z,4.10
2022-12-27T01:57:41.555Z,4.11
2022-12-27T01:57:51.581Z,4.11
2022-12-27T01:58:01.524Z,4.10
2022-12-27T01:58:11.607Z,4.11
2022-12-27T01:58:21.639Z,4.11
2022-12-27T01:58:31.616Z,4.11
2022-12-27T01:58:41.531Z,4.10
2022-12-27T01:58:51.523Z,4.10
2022-12-27T01:59:01.535Z,4.10
2022-12-27T01:59:11.633Z,4.11
2022-12-27T01:59:21.628Z,4.11
2022-12-27T01:59:31.550Z,4.10
2022-12-27T01:59:41.543Z,4.10
2022-12-27T01:59:51.640Z,4.08
2022-12-27T02:00:01.660Z,4.08
2022-12-27T02:00:11.642Z,4.08
2022-12-27T02:00:21.659Z,4.08
2022-12-27T02:00:31.632Z,4.08
2022-12-27T02:00:41.535Z,4.08
2022-12-27T02:00:51.584Z,4.07
2022-12-27T02:01:01.604Z,4.08
2022-12-27T02:01:11.652Z,4.07
2022-12-27T02:01:21.866Z,4.07
2022-12-27T02:01:31.675Z,4.07
2022-12-27T02:01:41.729Z,4.06
2022-12-27T02:01:51.714Z,4.07
2022-12-27T02:02:01.740Z,4.06
2022-12-27T02:02:11.778Z,4.06
2022-12-27T02:02:21.680Z,4.06
2022-12-27T02:02:31.597Z,4.06
2022-12-27T02:02:41.697Z,4.06
2022-12-27T02:02:51.594Z,4.06
2022-12-27T02:03:01.698Z,4.04
2022-12-27T02:03:11.720Z,4.06
2022-12-27T02:03:21.700Z,4.06
2022-12-27T02:03:31.593Z,4.06
2022-12-27T02:03:41.609Z,4.06
2022-12-27T02:03:51.558Z,4.07
2022-12-27T02:04:01.581Z,4.07
2022-12-27T02:04:11.523Z,4.06
2022-12-27T02:04:21.519Z,4.07
2022-12-27T02:04:31.547Z,4.07
2022-12-27T02:04:41.621Z,4.06
2022-12-27T02:04:51.601Z,4.06
2022-12-27T02:05:01.654Z,4.04
2022-12-27T02:05:11.605Z,4.04
2022-12-27T02:05:21.608Z,4.02
2022-12-27T02:05:31.521Z,4.04
2022-12-27T02:05:41.551Z,4.06
2022-12-27T02:05:51.631Z,4.06
2022-12-27T02:06:01.667Z,4.06
2022-12-27T02:06:11.546Z,4.06
2022-12-27T02:06:21.521Z,4.04
2022-12-27T02:06:31.533Z,4.04
2022-12-27T02:06:41.548Z,4.04
2022-12-27T02:06:51.533Z,4.04
2022-12-27T02:07:01.691Z,4.04
2022-12-27T02:07:11.642Z,4.04
2022-12-27T02:07:21.565Z,4.02
2022-12-27T02:07:31.530Z,4.02
2022-12-27T02:07:41.598Z,4.02
2022-12-27T02:07:51.613Z,3.99
2022-12-27T02:08:01.532Z,3.99
2022-12-27T02:08:11.634Z,3.99
2022-12-27T02:08:21.662Z,3.99
2022-12-27T02:08:31.612Z,3.96
2022-12-27T02:08:41.641Z,3.98
2022-12-27T02:08:51.519Z,3.99
2022-12-27T02:09:01.591Z,3.98
2022-12-27T02:09:11.640Z,3.99
2022-12-27T02:09:21.581Z,3.99
2022-12-27T02:09:31.646Z,3.99
2022-12-27T02:09:41.665Z,4.00
2022-12-27T02:09:51.580Z,3.99
2022-12-27T02:10:01.537Z,4.00
2022-12-27T02:10:11.631Z,4.00
2022-12-27T02:10:21.581Z,3.99
2022-12-27T02:10:31.569Z,4.00
2022-12-27T02:10:41.523Z,3.99
2022-12-27T02:10:51.524Z,4.00
2022-12-27T02:11:01.619Z,4.00
2022-12-27T02:11:11.525Z,4.00
2022-12-27T02:11:21.565Z,4.00
2022-12-27T02:11:31.592Z,3.96
2022-12-27T02:11:41.606Z,4.00
2022-12-27T02:11:51.628Z,4.00
2022-12-27T02:12:01.595Z,4.00
2022-12-27T02:12:11.539Z,4.00
2022-12-27T02:12:21.619Z,3.99
2022-12-27T02:12:31.543Z,3.99
2022-12-27T02:12:41.587Z,3.98
2022-12-27T02:12:51.642Z,3.99
2022-12-27T02:13:01.652Z,3.98